createdAt,value
2022-10-21T00:00:57.993Z,14.50
2022-10-21T00:03:29.566Z,14.50
2022-10-21T00:05:57.610Z,14.50
2022-10-21T00:08:27.051Z,14.50
2022-10-21T00:10:59.038Z,14.60
2022-10-21T00:13:29.061Z,14.60
2022-10-21T00:16:01.572Z,14.60
2022-10-21T00:18:30.240Z,14.70
2022-10-21T00:20:58.528Z,14.70
2022-10-21T00:23:27.477Z,14.70
2022-10-21T00:25:59.158Z,14.80
2022-10-21T00:28:27.769Z,14.80
2022-10-21T00:30:57.985Z,14.90
2022-10-21T00:33:27.769Z,15.00
2022-10-21T00:35:58.200Z,15.00
2022-10-21T00:38:26.433Z,15.10
2022-10-21T00:40:54.458Z,15.10
2022-10-21T00:43:24.176Z,15.30
2022-10-21T00:45:55.231Z,15.40
2022-10-21T00:48:30.143Z,15.50
2022-10-21T00:51:01.928Z,15.60
2022-10-21T00:53:31.177Z,15.50
2022-10-21T00:56:03.128Z,15.60
2022-10-21T00:58:35.617Z,15.60
2022-10-21T01:01:06.080Z,15.50
2022-10-21T01:03:35.939Z,15.60
2022-10-21T01:06:08.025Z,15.50
2022-10-21T01:08:37.058Z,15.50
2022-10-21T01:11:08.163Z,15.50
2022-10-21T01:13:49.609Z,15.40
2022-10-21T01:16:22.268Z,15.30
2022-10-21T01:19:00.182Z,15.30
2022-10-21T01:21:35.924Z,15.20
2022-10-21T01:24:36.301Z,15.20
2022-10-21T01:27:17.945Z,15.10
2022-10-21T01:30:09.208Z,15.10
2022-10-21T01:33:15.188Z,15.00
2022-10-21T01:35:50.626Z,15.00
2022-10-21T01:38:24.498Z,15.00
2022-10-21T01:40:58.472Z,15.00
2022-10-21T01:43:34.834Z,14.90
2022-10-21T01:46:07.194Z,14.80
2022-10-21T01:48:41.095Z,14.80
2022-10-21T01:51:11.191Z,14.70
2022-10-21T01:53:47.906Z,14.70
2022-10-21T01:56:18.324Z,14.60
2022-10-21T01:58:48.465Z,14.60
2022-10-21T02:01:18.847Z,14.50
2022-10-21T02:03:52.591Z,14.50
2022-10-21T02:06:20.515Z,14.50
2022-10-21T02:08:49.229Z,14.50
2022-10-21T02:11:19.012Z,14.50
2022-10-21T02:14:03.799Z,14.50
2022-10-21T02:16:37.761Z,14.50
2022-10-21T02:19:12.108Z,14.40
2022-10-21T02:21:40.776Z,14.40
2022-10-21T02:24:16.948Z,14.40
2022-10-21T02:26:45.116Z,14.40
2022-10-21T02:29:14.678Z,14.30
2022-10-21T02:32:01.582Z,14.30
2022-10-21T02:34:43.058Z,14.20
2022-10-21T02:37:28.147Z,14.20
2022-10-21T02:40:01.246Z,14.20
2022-10-21T02:42:33.231Z,14.10
2022-10-21T02:45:02.382Z,14.10
2022-10-21T02:47:30.650Z,14.10
2022-10-21T02:50:00.127Z,14.00
2022-10-21T02:52:28.130Z,14.00
2022-10-21T02:54:56.248Z,14.00
2022-10-21T02:57:24.304Z,14.00
2022-10-21T02:59:52.347Z,14.00
2022-10-21T03:02:20.473Z,14.00
2022-10-21T03:04:48.494Z,14.00
2022-10-21T03:07:17.947Z,13.90
2022-10-21T03:09:45.969Z,13.90
2022-10-21T03:12:14.054Z,13.90
2022-10-21T03:14:42.115Z,13.90
2022-10-21T03:17:10.240Z,13.90
2022-10-21T03:19:38.292Z,13.90
2022-10-21T03:22:06.391Z,13.80
2022-10-21T03:24:35.805Z,13.90
2022-10-21T03:27:04.075Z,13.90
2022-10-21T03:29:32.256Z,13.80
2022-10-21T03:32:00.362Z,13.80
2022-10-21T03:34:28.499Z,13.80
2022-10-21T03:36:56.574Z,13.70
2022-10-21T03:39:24.670Z,13.70
2022-10-21T03:41:54.191Z,13.80
2022-10-21T03:44:22.262Z,13.70
2022-10-21T03:46:50.377Z,13.70
2022-10-21T03:49:21.369Z,13.70
2022-10-21T03:51:50.017Z,13.70
2022-10-21T03:54:18.484Z,13.70
2022-10-21T03:56:47.240Z,13.70
2022-10-21T03:59:16.971Z,13.60
2022-10-21T04:01:45.150Z,13.70
2022-10-21T04:04:13.227Z,13.70
2022-10-21T04:06:41.215Z,13.70
2022-10-21T04:09:09.364Z,13.70
2022-10-21T04:11:37.518Z,13.70
2022-10-21T04:14:05.629Z,13.70
2022-10-21T04:16:35.167Z,13.60
2022-10-21T04:19:03.387Z,13.60
2022-10-21T04:21:31.475Z,13.60
2022-10-21T04:23:59.533Z,13.60
2022-10-21T04:26:27.596Z,13.60
2022-10-21T04:28:55.837Z,13.60
2022-10-21T04:31:26.521Z,13.60
2022-10-21T04:33:57.914Z,13.60
2022-10-21T04:36:26.047Z,13.60
2022-10-21T04:38:55.080Z,13.60
2022-10-21T04:41:23.282Z,13.70
2022-10-21T04:43:51.361Z,13.70
2022-10-21T04:46:20.870Z,13.70
2022-10-21T04:48:49.068Z,13.60
2022-10-21T04:51:18.565Z,13.60
2022-10-21T04:53:46.882Z,13.70
2022-10-21T04:56:14.930Z,13.60
2022-10-21T04:58:42.997Z,13.60
2022-10-21T05:01:11.126Z,13.70
2022-10-21T05:03:39.213Z,13.60
2022-10-21T05:06:07.406Z,13.70
2022-10-21T05:08:37.000Z,13.60
2022-10-21T05:11:05.219Z,13.70
2022-10-21T05:13:33.599Z,13.70
2022-10-21T05:16:02.794Z,13.70
2022-10-21T05:18:31.397Z,13.60
2022-10-21T05:20:59.941Z,13.50
2022-10-21T05:23:28.425Z,13.60
2022-10-21T05:25:58.073Z,13.60
2022-10-21T05:28:26.605Z,13.60
2022-10-21T05:30:54.696Z,13.50
2022-10-21T05:33:22.763Z,13.60
2022-10-21T05:35:58.228Z,13.60
2022-10-21T05:38:26.235Z,13.60
2022-10-21T05:40:54.327Z,13.60
2022-10-21T05:43:23.837Z,13.50
2022-10-21T05:45:51.967Z,13.50
2022-10-21T05:48:20.207Z,13.60
2022-10-21T05:50:48.871Z,13.50
2022-10-21T05:53:17.470Z,13.50
2022-10-21T05:55:45.666Z,13.50
2022-10-21T05:58:13.687Z,13.50
2022-10-21T06:00:43.477Z,13.60
2022-10-21T06:03:11.632Z,13.50
2022-10-21T06:05:39.741Z,13.50
2022-10-21T06:08:07.951Z,13.50
2022-10-21T06:10:35.985Z,13.50
2022-10-21T06:13:04.078Z,13.50
2022-10-21T06:15:32.143Z,13.50
2022-10-21T06:18:01.555Z,13.40
2022-10-21T06:20:29.636Z,13.40
2022-10-21T06:22:59.676Z,13.40
2022-10-21T06:25:27.799Z,13.50
2022-10-21T06:27:55.901Z,13.40
2022-10-21T06:30:24.207Z,13.40
2022-10-21T06:32:52.237Z,13.40
2022-10-21T06:35:21.511Z,13.40
2022-10-21T06:37:49.426Z,13.40
2022-10-21T06:40:17.544Z,13.40
2022-10-21T06:42:45.473Z,13.40
2022-10-21T06:45:13.635Z,13.40
2022-10-21T06:47:41.941Z,13.40
2022-10-21T06:50:10.494Z,13.40
2022-10-21T06:52:39.950Z,13.30
2022-10-21T06:55:08.997Z,13.40
2022-10-21T06:57:37.442Z,13.40
2022-10-21T07:00:06.641Z,13.40
2022-10-21T07:02:34.591Z,13.50
2022-10-21T07:05:02.663Z,13.50
2022-10-21T07:07:30.575Z,13.50
2022-10-21T07:09:59.942Z,13.50
2022-10-21T07:12:28.719Z,13.60
2022-10-21T07:14:56.608Z,13.60
2022-10-21T07:17:24.773Z,13.70
2022-10-21T07:19:52.683Z,13.70
2022-10-21T07:22:20.616Z,13.70
2022-10-21T07:24:48.547Z,13.70
2022-10-21T07:27:17.811Z,13.80
2022-10-21T07:29:45.797Z,13.80
2022-10-21T07:32:13.708Z,13.80
2022-10-21T07:34:41.784Z,13.80
2022-10-21T07:37:09.836Z,13.80
2022-10-21T07:39:37.746Z,13.90
2022-10-21T07:42:05.696Z,13.90
2022-10-21T07:44:36.047Z,13.90
2022-10-21T07:47:04.012Z,14.00
2022-10-21T07:49:31.891Z,14.00
2022-10-21T07:52:00.026Z,14.10
2022-10-21T07:54:27.932Z,14.20
2022-10-21T07:56:55.832Z,14.20
2022-10-21T07:59:24.374Z,14.30
2022-10-21T08:01:54.098Z,14.30
2022-10-21T08:04:24.860Z,14.40
2022-10-21T08:06:52.895Z,14.40
2022-10-21T08:09:20.834Z,14.50
2022-10-21T08:11:48.864Z,14.50
2022-10-21T08:14:17.086Z,14.50
2022-10-21T08:16:45.067Z,14.60
2022-10-21T08:19:19.902Z,14.60
2022-10-21T08:21:48.054Z,14.60
2022-10-21T08:24:15.987Z,14.70
2022-10-21T08:26:43.925Z,14.70
2022-10-21T08:29:11.865Z,14.70
2022-10-21T08:31:40.859Z,14.80
2022-10-21T08:34:10.444Z,14.80
2022-10-21T08:36:40.171Z,14.80
2022-10-21T08:39:08.569Z,14.80
2022-10-21T08:41:57.554Z,14.80
2022-10-21T08:44:34.699Z,14.80
2022-10-21T08:49:51.795Z,14.80
2022-10-21T08:52:24.619Z,14.90
2022-10-21T08:54:57.443Z,14.90
2022-10-21T08:57:25.528Z,14.90
2022-10-21T08:59:53.871Z,15.00
2022-10-21T09:02:36.315Z,15.00
2022-10-21T09:05:22.741Z,15.10
2022-10-21T09:08:04.369Z,15.10
2022-10-21T09:10:46.595Z,15.10
2022-10-21T09:13:21.329Z,15.10
2022-10-21T09:16:00.156Z,15.20
2022-10-21T09:18:39.670Z,15.30
2022-10-21T09:21:15.939Z,15.30
2022-10-21T09:24:06.735Z,15.30
2022-10-21T09:26:38.885Z,15.30
2022-10-21T09:29:31.789Z,15.40
2022-10-21T09:32:11.496Z,15.40
2022-10-21T09:34:52.091Z,15.50
2022-10-21T09:37:29.428Z,15.50
2022-10-21T09:40:08.460Z,15.60
2022-10-21T09:42:47.482Z,15.70
2022-10-21T09:45:25.002Z,15.70
2022-10-21T09:47:57.938Z,15.80
2022-10-21T09:50:26.782Z,15.80
2022-10-21T09:53:01.794Z,15.80
2022-10-21T09:55:32.618Z,16.00
2022-10-21T09:58:02.722Z,16.00
2022-10-21T10:00:45.849Z,16.10
2022-10-21T10:03:14.514Z,16.20
2022-10-21T10:05:47.114Z,16.20
2022-10-21T10:08:27.634Z,16.30
2022-10-21T10:11:03.467Z,16.30
2022-10-21T10:13:32.089Z,16.30
2022-10-21T10:16:15.769Z,16.30
2022-10-21T10:18:44.596Z,16.30
2022-10-21T10:21:13.865Z,16.40
2022-10-21T10:23:47.130Z,16.40
2022-10-21T10:26:23.752Z,16.60
2022-10-21T10:28:57.696Z,16.60
2022-10-21T10:31:29.449Z,16.70
2022-10-21T10:34:01.037Z,16.70
2022-10-21T10:36:32.707Z,16.80
2022-10-21T10:39:02.780Z,16.90
2022-10-21T10:41:37.335Z,17.00
2022-10-21T10:44:11.998Z,17.10
2022-10-21T10:46:40.788Z,17.10
2022-10-21T10:49:22.522Z,17.10
2022-10-21T10:52:06.528Z,17.20
2022-10-21T10:54:34.975Z,17.20
2022-10-21T10:57:09.747Z,17.20
2022-10-21T10:59:43.097Z,17.30
2022-10-21T11:02:26.881Z,17.30
2022-10-21T11:05:16.239Z,17.30
2022-10-21T11:07:48.650Z,17.40
2022-10-21T11:10:30.957Z,17.40
2022-10-21T11:13:01.787Z,17.50
2022-10-21T11:15:43.229Z,17.50
2022-10-21T11:18:25.829Z,17.70
2022-10-21T11:21:06.296Z,17.80
2022-10-21T11:23:52.274Z,18.00
2022-10-21T11:26:33.712Z,18.10
2022-10-21T11:29:17.472Z,18.20
2022-10-21T11:32:10.687Z,18.30
2022-10-21T11:34:50.740Z,18.40
2022-10-21T11:37:28.767Z,18.60
2022-10-21T11:40:04.367Z,19.00
2022-10-21T11:42:39.946Z,19.50
2022-10-21T11:45:26.360Z,19.80
2022-10-21T11:48:01.883Z,19.80
2022-10-21T11:50:36.589Z,20.00
2022-10-21T11:53:17.769Z,20.10
2022-10-21T11:55:54.560Z,20.10
2022-10-21T11:58:37.314Z,20.00
2022-10-21T12:01:23.975Z,20.00
2022-10-21T12:04:17.393Z,20.00
2022-10-21T12:06:53.621Z,20.00
2022-10-21T12:09:27.629Z,20.00
2022-10-21T12:11:59.868Z,19.90
2022-10-21T12:14:31.843Z,20.00
2022-10-21T12:17:06.415Z,19.80
2022-10-21T12:19:35.555Z,19.70
2022-10-21T12:22:04.601Z,19.70
2022-10-21T12:24:45.024Z,19.70
2022-10-21T12:27:22.910Z,19.70
2022-10-21T12:30:05.212Z,19.70
2022-10-21T12:32:42.669Z,19.60
2022-10-21T12:35:15.008Z,19.60
2022-10-21T12:38:01.926Z,19.60
2022-10-21T12:40:41.036Z,19.60
2022-10-21T12:43:22.399Z,19.60
2022-10-21T12:46:04.496Z,19.60
2022-10-21T12:48:38.137Z,19.60
2022-10-21T12:51:09.103Z,19.60
2022-10-21T12:53:41.272Z,19.60
2022-10-21T12:56:11.536Z,19.60
2022-10-21T12:58:42.615Z,19.60
2022-10-21T13:01:35.397Z,19.50
2022-10-21T13:04:05.373Z,19.60
2022-10-21T13:06:52.917Z,19.60
2022-10-21T13:09:39.290Z,19.60
2022-10-21T13:12:30.425Z,19.60
2022-10-21T13:14:59.633Z,19.60
2022-10-21T13:17:47.132Z,19.70
2022-10-21T13:20:48.271Z,19.70
2022-10-21T13:23:37.907Z,19.70
2022-10-21T13:26:14.107Z,19.80
2022-10-21T13:28:42.774Z,19.90
2022-10-21T13:31:11.073Z,20.00
2022-10-21T13:33:39.832Z,20.40
2022-10-21T13:36:14.061Z,20.80
2022-10-21T13:38:50.352Z,21.00
2022-10-21T13:41:26.159Z,21.10
2022-10-21T13:43:57.271Z,21.20
2022-10-21T13:46:28.721Z,21.00
2022-10-21T13:49:00.584Z,21.00
2022-10-21T13:51:32.657Z,20.80
2022-10-21T13:54:04.257Z,20.70
2022-10-21T13:56:34.312Z,20.50
2022-10-21T13:59:02.946Z,20.50
2022-10-21T14:01:44.726Z,20.40
2022-10-21T14:04:14.841Z,20.30
2022-10-21T14:06:48.349Z,20.20
2022-10-21T14:09:21.754Z,20.20
2022-10-21T14:11:53.577Z,20.10
2022-10-21T14:14:25.572Z,20.10
2022-10-21T14:16:56.727Z,20.10
2022-10-21T14:19:29.090Z,20.00
2022-10-21T14:22:00.930Z,20.10
2022-10-21T14:24:34.970Z,20.00
2022-10-21T14:27:04.295Z,20.00
2022-10-21T14:29:36.021Z,20.00
2022-10-21T14:32:05.576Z,20.00
2022-10-21T14:34:36.712Z,20.00
2022-10-21T14:37:19.329Z,19.90
2022-10-21T14:39:47.967Z,19.90
2022-10-21T14:42:19.332Z,19.90
2022-10-21T14:44:49.661Z,19.90
2022-10-21T14:47:19.773Z,19.90
2022-10-21T14:49:50.048Z,19.90
2022-10-21T14:52:22.808Z,19.80
2022-10-21T14:54:55.788Z,19.80
2022-10-21T14:57:35.460Z,19.70
2022-10-21T15:00:06.118Z,19.70
2022-10-21T15:02:37.231Z,19.60
2022-10-21T15:05:30.953Z,19.60
2022-10-21T15:08:32.145Z,19.70
2022-10-21T15:11:23.319Z,19.70
2022-10-21T15:14:07.279Z,19.60
2022-10-21T15:19:10.103Z,19.50
2022-10-21T15:21:40.974Z,19.50
2022-10-21T15:24:21.102Z,19.40
2022-10-21T15:26:51.707Z,19.40
2022-10-21T15:29:34.835Z,19.40
2022-10-21T15:32:03.620Z,19.30
2022-10-21T15:34:31.956Z,19.20
2022-10-21T15:37:00.101Z,19.10
2022-10-21T15:39:30.080Z,19.10
2022-10-21T15:41:58.987Z,19.10
2022-10-21T15:44:29.260Z,19.20
2022-10-21T15:47:00.723Z,19.20
2022-10-21T15:49:32.855Z,19.20
2022-10-21T15:52:01.024Z,19.10
2022-10-21T15:54:30.447Z,19.00
2022-10-21T15:57:00.216Z,19.00
2022-10-21T15:59:29.811Z,19.00
2022-10-21T16:01:58.856Z,18.90
2022-10-21T16:04:27.652Z,18.80
2022-10-21T16:06:56.237Z,18.70
2022-10-21T16:09:27.003Z,18.60
2022-10-21T16:12:00.340Z,18.50
2022-10-21T16:14:30.999Z,18.30
2022-10-21T16:17:00.461Z,18.20
2022-10-21T16:19:29.035Z,18.10
2022-10-21T16:21:57.118Z,18.10
2022-10-21T16:24:25.265Z,18.00
2022-10-21T16:26:53.380Z,17.90
2022-10-21T16:29:24.694Z,17.80
2022-10-21T16:31:53.291Z,17.90
2022-10-21T16:34:21.572Z,17.70
2022-10-21T16:36:49.693Z,17.60
2022-10-21T16:39:21.958Z,17.50
2022-10-21T16:41:50.298Z,17.40
2022-10-21T16:44:18.620Z,17.20
2022-10-21T16:46:52.065Z,17.10
2022-10-21T16:49:23.421Z,17.10
2022-10-21T16:51:53.095Z,17.00
2022-10-21T16:54:22.622Z,17.00
2022-10-21T16:56:53.357Z,17.00
2022-10-21T16:59:23.449Z,16.90
2022-10-21T17:01:52.973Z,16.90
2022-10-21T17:04:21.090Z,17.00
2022-10-21T17:06:49.026Z,16.90
2022-10-21T17:09:17.281Z,17.00
2022-10-21T17:11:45.438Z,16.90
2022-10-21T17:14:17.523Z,17.00
2022-10-21T17:16:46.318Z,17.00
2022-10-21T17:19:15.918Z,16.90
2022-10-21T17:21:44.383Z,16.90
2022-10-21T17:24:15.421Z,16.90
2022-10-21T17:26:43.500Z,16.90
2022-10-21T17:29:12.459Z,16.90
2022-10-21T17:31:42.660Z,16.90
2022-10-21T17:34:29.080Z,17.00
2022-10-21T17:36:57.488Z,16.90
2022-10-21T17:39:25.899Z,16.90
2022-10-21T17:41:54.479Z,16.90
2022-10-21T17:44:22.943Z,16.90
2022-10-21T17:46:54.636Z,16.90
2022-10-21T17:49:23.749Z,16.90
2022-10-21T17:51:53.755Z,16.90
2022-10-21T17:54:25.982Z,16.90
2022-10-21T17:56:57.777Z,16.80
2022-10-21T17:59:26.838Z,16.80
2022-10-21T18:01:55.255Z,16.80
2022-10-21T18:04:23.716Z,16.80
2022-10-21T18:06:53.294Z,16.90
2022-10-21T18:09:21.813Z,16.80
2022-10-21T18:11:50.129Z,16.80
2022-10-21T18:14:18.431Z,16.80
2022-10-21T18:16:47.106Z,16.70
2022-10-21T18:19:15.601Z,16.70
2022-10-21T18:21:43.886Z,16.70
2022-10-21T18:24:13.658Z,16.70
2022-10-21T18:26:42.020Z,16.70
2022-10-21T18:29:10.567Z,16.70
2022-10-21T18:31:40.146Z,16.70
2022-10-21T18:34:09.342Z,16.70
2022-10-21T18:36:38.102Z,16.70
2022-10-21T18:39:07.696Z,16.60
2022-10-21T18:41:38.676Z,16.60
2022-10-21T18:44:09.226Z,16.60
2022-10-21T18:46:39.202Z,16.50
2022-10-21T18:49:15.137Z,16.40
2022-10-21T18:51:43.509Z,16.40
2022-10-21T18:54:11.846Z,16.40
2022-10-21T18:56:41.448Z,16.30
2022-10-21T18:59:10.056Z,16.30
2022-10-21T19:01:39.170Z,16.20
2022-10-21T19:04:07.723Z,16.20
2022-10-21T19:06:38.671Z,16.20
2022-10-21T19:09:10.031Z,16.10
2022-10-21T19:11:38.445Z,16.10
2022-10-21T19:14:11.259Z,16.10
2022-10-21T19:16:42.442Z,16.00
2022-10-21T19:19:11.053Z,16.10
2022-10-21T19:21:39.622Z,16.00
2022-10-21T19:24:08.553Z,16.00
2022-10-21T19:26:38.966Z,16.00
2022-10-21T19:29:10.716Z,15.90
2022-10-21T19:31:39.012Z,15.80
2022-10-21T19:34:07.763Z,15.90
2022-10-21T19:36:36.236Z,15.80
2022-10-21T19:39:04.491Z,15.80
2022-10-21T19:41:32.702Z,15.80
2022-10-21T19:44:01.404Z,15.70
2022-10-21T19:46:33.049Z,15.70
2022-10-21T19:49:02.762Z,15.70
2022-10-21T19:51:31.055Z,15.70
2022-10-21T19:53:59.410Z,15.60
2022-10-21T19:56:31.972Z,15.60
2022-10-21T19:59:02.730Z,15.60
2022-10-21T20:01:34.248Z,15.60
2022-10-21T20:04:04.419Z,15.60
2022-10-21T20:06:34.156Z,15.60
2022-10-21T20:09:04.682Z,15.60
2022-10-21T20:11:33.369Z,15.60
2022-10-21T20:14:01.875Z,15.60
2022-10-21T20:16:33.331Z,15.70
2022-10-21T20:19:02.665Z,15.70
2022-10-21T20:21:32.890Z,15.70
2022-10-21T20:24:01.783Z,15.60
2022-10-21T20:26:30.497Z,15.60
2022-10-21T20:29:00.693Z,15.50
2022-10-21T20:31:29.972Z,15.50
2022-10-21T20:33:59.660Z,15.50
2022-10-21T20:36:29.575Z,15.50
2022-10-21T20:38:59.789Z,15.50
2022-10-21T20:41:35.935Z,15.60
2022-10-21T20:44:06.359Z,15.50
2022-10-21T20:46:36.344Z,15.60
2022-10-21T20:49:08.118Z,15.60
2022-10-21T20:51:37.802Z,15.50
2022-10-21T20:54:08.439Z,15.60
2022-10-21T20:56:39.308Z,15.60
2022-10-21T20:59:09.146Z,15.60
2022-10-21T21:01:41.791Z,15.60
2022-10-21T21:04:13.381Z,15.60
2022-10-21T21:06:43.888Z,15.60
2022-10-21T21:09:33.614Z,15.60
2022-10-21T21:12:02.791Z,15.60
2022-10-21T21:14:31.161Z,15.60
2022-10-21T21:16:59.234Z,15.60
2022-10-21T21:19:28.792Z,15.60
2022-10-21T21:21:56.892Z,15.60
2022-10-21T21:24:24.993Z,15.60
2022-10-21T21:26:53.084Z,15.50
2022-10-21T21:29:21.210Z,15.50
2022-10-21T21:31:49.299Z,15.50
2022-10-21T21:34:17.607Z,15.50
2022-10-21T21:36:47.133Z,15.50
2022-10-21T21:41:43.405Z,15.40
2022-10-21T21:44:11.486Z,15.50
2022-10-21T21:46:39.543Z,15.50
2022-10-21T21:49:07.662Z,15.50
2022-10-21T21:51:37.013Z,15.40
2022-10-21T21:54:07.718Z,15.40
2022-10-21T21:56:36.054Z,15.50
2022-10-21T21:59:04.123Z,15.40
2022-10-21T22:01:32.219Z,15.40
2022-10-21T22:04:01.203Z,15.40
2022-10-21T22:06:32.405Z,15.40
2022-10-21T22:09:01.996Z,15.40
2022-10-21T22:11:33.458Z,15.40
2022-10-21T22:14:01.636Z,15.40
2022-10-21T22:16:30.993Z,15.40
2022-10-21T22:19:01.112Z,15.30
2022-10-21T22:21:30.851Z,15.30
2022-10-21T22:23:59.311Z,15.30
2022-10-21T22:26:27.663Z,15.30
2022-10-21T22:28:57.152Z,15.30
2022-10-21T22:31:29.290Z,15.20
2022-10-21T22:33:59.940Z,15.20
2022-10-21T22:36:28.121Z,15.20
2022-10-21T22:38:56.215Z,15.20
2022-10-21T22:41:24.261Z,15.20
2022-10-21T22:43:52.401Z,15.10
2022-10-21T22:46:29.747Z,15.10
2022-10-21T22:49:01.371Z,15.10
2022-10-21T22:51:29.444Z,15.10
2022-10-21T22:53:57.521Z,15.10
2022-10-21T22:56:26.145Z,15.10
2022-10-21T22:58:54.215Z,15.00
2022-10-21T23:01:26.665Z,15.00
2022-10-21T23:03:54.719Z,15.00
2022-10-21T23:06:22.723Z,14.90
2022-10-21T23:08:50.850Z,14.90
2022-10-21T23:11:18.953Z,14.90
2022-10-21T23:13:56.400Z,14.90
2022-10-21T23:16:32.566Z,14.80
2022-10-21T23:19:00.805Z,14.80
2022-10-21T23:21:29.331Z,14.80
2022-10-21T23:23:57.539Z,14.70
2022-10-21T23:26:25.833Z,14.70
2022-10-21T23:28:53.935Z,14.70
2022-10-21T23:31:21.956Z,14.70
2022-10-21T23:33:51.434Z,14.70
2022-10-21T23:36:19.834Z,14.70
2022-10-21T23:38:47.925Z,14.70
2022-10-21T23:41:15.983Z,14.80
2022-10-21T23:43:44.113Z,14.80
2022-10-21T23:46:12.141Z,14.80
2022-10-21T23:48:40.207Z,14.80
2022-10-21T23:51:09.637Z,14.80
2022-10-21T23:53:37.691Z,14.80
2022-10-21T23:56:06.267Z,14.80
2022-10-21T23:58:34.422Z,14.80
